sensor_id;sensor_type;location;lat;lon;timestamp;pressure;altitude;pressure_sealevel;temperature;humidity
54236;BME280;40151;43.606;1.472;2023-03-03T00:00:44;99783.22;;;18.99;45.21
54236;BME280;40151;43.606;1.472;2023-03-03T00:03:13;99782.38;;;18.99;45.00
54236;BME280;40151;43.606;1.472;2023-03-03T00:05:40;99786.81;;;18.98;45.01
54236;BME280;40151;43.606;1.472;2023-03-03T00:08:07;99780.56;;;18.99;45.06
54236;BME280;40151;43.606;1.472;2023-03-03T00:10:33;99774.69;;;18.94;45.32
54236;BME280;40151;43.606;1.472;2023-03-03T00:12:58;99779.97;;;18.94;45.17
54236;BME280;40151;43.606;1.472;2023-03-03T00:15:24;99784.22;;;18.97;45.19
54236;BME280;40151;43.606;1.472;2023-03-03T00:17:51;99781.69;;;18.95;45.27
54236;BME280;40151;43.606;1.472;2023-03-03T00:20:36;99778.09;;;18.96;45.09
54236;BME280;40151;43.606;1.472;2023-03-03T00:25:33;99769.38;;;18.94;45.24
54236;BME280;40151;43.606;1.472;2023-03-03T00:28:15;99770.28;;;18.93;45.28
54236;BME280;40151;43.606;1.472;2023-03-03T00:30:43;99769.53;;;18.91;45.22
54236;BME280;40151;43.606;1.472;2023-03-03T00:33:32;99773.94;;;18.90;45.47
54236;BME280;40151;43.606;1.472;2023-03-03T00:38:39;99770.59;;;18.87;45.34
54236;BME280;40151;43.606;1.472;2023-03-03T00:41:26;99767.09;;;18.86;45.23
54236;BME280;40151;43.606;1.472;2023-03-03T00:43:52;99767.94;;;18.87;45.01
54236;BME280;40151;43.606;1.472;2023-03-03T00:46:22;99767.94;;;18.87;45.16
54236;BME280;40151;43.606;1.472;2023-03-03T00:48:49;99765.47;;;18.84;45.23
54236;BME280;40151;43.606;1.472;2023-03-03T00:51:26;99768.09;;;18.84;45.38
54236;BME280;40151;43.606;1.472;2023-03-03T00:53:54;99762.81;;;18.84;45.23
54236;BME280;40151;43.606;1.472;2023-03-03T00:56:21;99761.09;;;18.83;45.16
54236;BME280;40151;43.606;1.472;2023-03-03T00:58:47;99763.81;;;18.81;45.27
54236;BME280;40151;43.606;1.472;2023-03-03T01:01:13;99770.88;;;18.81;45.33
54236;BME280;40151;43.606;1.472;2023-03-03T01:03:39;99766.59;;;18.78;45.15
54236;BME280;40151;43.606;1.472;2023-03-03T01:06:04;99769.22;;;18.78;45.50
54236;BME280;40151;43.606;1.472;2023-03-03T01:08:30;99771.09;;;18.76;45.49
54236;BME280;40151;43.606;1.472;2023-03-03T01:11:20;99763.09;;;18.77;45.17
54236;BME280;40151;43.606;1.472;2023-03-03T01:13:47;99757.81;;;18.77;45.40
54236;BME280;40151;43.606;1.472;2023-03-03T01:16:14;99766.81;;;18.73;45.58
54236;BME280;40151;43.606;1.472;2023-03-03T01:18:40;99758.94;;;18.72;45.65
54236;BME280;40151;43.606;1.472;2023-03-03T01:21:07;99760.59;;;18.74;45.49
54236;BME280;40151;43.606;1.472;2023-03-03T01:23:33;99767.81;;;18.71;45.52
54236;BME280;40151;43.606;1.472;2023-03-03T01:25:59;99760.59;;;18.74;45.29
54236;BME280;40151;43.606;1.472;2023-03-03T01:28:24;99758.94;;;18.72;45.26
54236;BME280;40151;43.606;1.472;2023-03-03T01:30:50;99751.06;;;18.70;45.50
54236;BME280;40151;43.606;1.472;2023-03-03T01:33:16;99750.25;;;18.70;45.45
54236;BME280;40151;43.606;1.472;2023-03-03T01:35:47;99752.94;;;18.68;45.46
54236;BME280;40151;43.606;1.472;2023-03-03T01:38:14;99748.53;;;18.69;45.65
54236;BME280;40151;43.606;1.472;2023-03-03T01:40:40;99751.25;;;18.67;45.39
54236;BME280;40151;43.606;1.472;2023-03-03T01:43:06;99753.88;;;18.67;45.36
54236;BME280;40151;43.606;1.472;2023-03-03T01:50:46;99753.22;;;18.62;45.54
54236;BME280;40151;43.606;1.472;2023-03-03T01:53:19;99748.66;;;18.65;45.75
54236;BME280;40151;43.606;1.472;2023-03-03T01:55:46;99742.44;;;18.67;45.78
54236;BME280;40151;43.606;1.472;2023-03-03T01:58:27;99743.44;;;18.64;45.72
54236;BME280;40151;43.606;1.472;2023-03-03T02:01:04;99740.97;;;18.61;45.71
54236;BME280;40151;43.606;1.472;2023-03-03T02:03:30;99746.25;;;18.61;45.93
54236;BME280;40151;43.606;1.472;2023-03-03T02:05:59;99750.53;;;18.63;45.52
54236;BME280;40151;43.606;1.472;2023-03-03T02:08:32;99743.59;;;18.61;45.84
54236;BME280;40151;43.606;1.472;2023-03-03T02:11:01;99740.03;;;18.62;45.81
54236;BME280;40151;43.606;1.472;2023-03-03T02:13:28;99741.03;;;18.59;45.53
54236;BME280;40151;43.606;1.472;2023-03-03T02:15:53;99737.53;;;18.59;45.53
54236;BME280;40151;43.606;1.472;2023-03-03T02:18:21;99731.31;;;18.60;45.74
54236;BME280;40151;43.606;1.472;2023-03-03T02:20:56;99729.59;;;18.59;45.81
54236;BME280;40151;43.606;1.472;2023-03-03T02:28:24;99731.66;;;18.52;45.67
54236;BME280;40151;43.606;1.472;2023-03-03T02:30:54;99726.31;;;18.54;45.48
54236;BME280;40151;43.606;1.472;2023-03-03T02:33:20;99721.97;;;18.52;45.63
54236;BME280;40151;43.606;1.472;2023-03-03T02:35:45;99725.44;;;18.53;45.81
54236;BME280;40151;43.606;1.472;2023-03-03T02:40:52;99721.97;;;18.52;45.65
54236;BME280;40151;43.606;1.472;2023-03-03T02:43:22;99724.75;;;18.49;45.71
54236;BME280;40151;43.606;1.472;2023-03-03T02:45:51;99720.22;;;18.51;45.63
54236;BME280;40151;43.606;1.472;2023-03-03T02:48:16;99716.81;;;18.49;45.88
54236;BME280;40151;43.606;1.472;2023-03-03T02:50:42;99718.69;;;18.47;45.87
54236;BME280;40151;43.606;1.472;2023-03-03T02:53:07;99716.81;;;18.49;45.54
54236;BME280;40151;43.606;1.472;2023-03-03T02:55:33;99722.22;;;18.46;45.49
54236;BME280;40151;43.606;1.472;2023-03-03T02:57:58;99713.38;;;18.47;45.81
54236;BME280;40151;43.606;1.472;2023-03-03T03:00:24;99714.47;;;18.43;45.62
54236;BME280;40151;43.606;1.472;2023-03-03T03:02:49;99707.41;;;18.44;45.80
54236;BME280;40151;43.606;1.472;2023-03-03T03:05:14;99715.22;;;18.45;45.77
54236;BME280;40151;43.606;1.472;2023-03-03T03:07:40;99710.09;;;18.42;45.90
54236;BME280;40151;43.606;1.472;2023-03-03T03:10:05;99707.53;;;18.41;45.63
54236;BME280;40151;43.606;1.472;2023-03-03T03:12:31;99713.69;;;18.41;45.71
54236;BME280;40151;43.606;1.472;2023-03-03T03:14:56;99712.88;;;18.39;45.83
54236;BME280;40151;43.606;1.472;2023-03-03T03:17:22;99726.03;;;18.41;45.60
54236;BME280;40151;43.606;1.472;2023-03-03T03:19:47;99722.50;;;18.40;45.57
54236;BME280;40151;43.606;1.472;2023-03-03T03:22:13;99710.22;;;18.39;45.56
54236;BME280;40151;43.606;1.472;2023-03-03T03:24:38;99713.81;;;18.38;45.61
54236;BME280;40151;43.606;1.472;2023-03-03T03:27:04;99712.94;;;18.37;45.54
54236;BME280;40151;43.606;1.472;2023-03-03T03:29:29;99722.78;;;18.34;45.75
54236;BME280;40151;43.606;1.472;2023-03-03T03:31:54;99718.38;;;18.34;45.58
54236;BME280;40151;43.606;1.472;2023-03-03T03:34:20;99717.50;;;18.34;45.43
54236;BME280;40151;43.606;1.472;2023-03-03T03:36:45;99713.88;;;18.36;45.65
54236;BME280;40151;43.606;1.472;2023-03-03T03:39:11;99713.22;;;18.31;45.75
54236;BME280;40151;43.606;1.472;2023-03-03T03:41:36;99707.09;;;18.31;45.51
54236;BME280;40151;43.606;1.472;2023-03-03T03:44:02;99710.66;;;18.30;45.61
54236;BME280;40151;43.606;1.472;2023-03-03T03:46:27;99708.16;;;18.27;45.68
54236;BME280;40151;43.606;1.472;2023-03-03T03:48:53;99718.66;;;18.28;45.92
54236;BME280;40151;43.606;1.472;2023-03-03T03:51:18;99711.56;;;18.29;45.92
54236;BME280;40151;43.606;1.472;2023-03-03T03:53:43;99717.78;;;18.28;45.77
54236;BME280;40151;43.606;1.472;2023-03-03T03:56:09;99714.38;;;18.25;45.44
54236;BME280;40151;43.606;1.472;2023-03-03T03:58:35;99719.72;;;18.24;45.58
54236;BME280;40151;43.606;1.472;2023-03-03T04:01:05;99714.50;;;18.22;45.61
54236;BME280;40151;43.606;1.472;2023-03-03T04:03:30;99715.31;;;18.24;45.62
54236;BME280;40151;43.606;1.472;2023-03-03T04:05:56;99716.22;;;18.23;45.52
54236;BME280;40151;43.606;1.472;2023-03-03T04:08:21;99719.66;;;18.25;45.73
54236;BME280;40151;43.606;1.472;2023-03-03T04:10:47;99718.06;;;18.21;45.62
54236;BME280;40151;43.606;1.472;2023-03-03T04:13:12;99722.41;;;18.22;45.53
54236;BME280;40151;43.606;1.472;2023-03-03T04:15:38;99730.44;;;18.21;45.71
54236;BME280;40151;43.606;1.472;2023-03-03T04:18:03;99726.94;;;18.20;45.54
54236;BME280;40151;43.606;1.472;2023-03-03T04:20:29;99728.91;;;18.15;45.64
54236;BME280;40151;43.606;1.472;2023-03-03T04:22:54;99728.06;;;18.15;45.65
54236;BME280;40151;43.606;1.472;2023-03-03T04:25:21;99727.13;;;18.16;45.70
54236;BME280;40151;43.606;1.472;2023-03-03T04:27:47;99727.19;;;18.14;45.70
54236;BME280;40151;43.606;1.472;2023-03-03T04:30:14;99727.19;;;18.14;45.86
54236;BME280;40151;43.606;1.472;2023-03-03T04:32:40;99721.91;;;18.14;45.77
54236;BME280;40151;43.606;1.472;2023-03-03T04:35:06;99725.50;;;18.13;45.91
54236;BME280;40151;43.606;1.472;2023-03-03T04:37:32;99733.41;;;18.13;45.59
54236;BME280;40151;43.606;1.472;2023-03-03T04:39:58;99728.97;;;18.14;45.42
54236;BME280;40151;43.606;1.472;2023-03-03T04:42:23;99729.06;;;18.12;45.70
54236;BME280;40151;43.606;1.472;2023-03-03T04:44:49;99724.69;;;18.11;45.79
54236;BME280;40151;43.606;1.472;2023-03-03T04:47:14;99737.09;;;18.09;45.49
54236;BME280;40151;43.606;1.472;2023-03-03T04:49:39;99722.91;;;18.11;45.81
54236;BME280;40151;43.606;1.472;2023-03-03T04:52:05;99725.63;;;18.10;45.50
54236;BME280;40151;43.606;1.472;2023-03-03T04:54:30;99729.34;;;18.06;45.71
54236;BME280;40151;43.606;1.472;2023-03-03T04:56:56;99736.28;;;18.08;45.69
54236;BME280;40151;43.606;1.472;2023-03-03T04:59:21;99727.72;;;18.02;45.59
54236;BME280;40151;43.606;1.472;2023-03-03T05:01:46;99732.81;;;18.06;45.58
54236;BME280;40151;43.606;1.472;2023-03-03T05:04:13;99726.84;;;18.01;45.54
54236;BME280;40151;43.606;1.472;2023-03-03T05:06:38;99731.97;;;18.06;45.69
54236;BME280;40151;43.606;1.472;2023-03-03T05:09:05;99738.13;;;18.05;45.83
54236;BME280;40151;43.606;1.472;2023-03-03T05:11:30;99727.72;;;18.02;45.54
54236;BME280;40151;43.606;1.472;2023-03-03T05:13:56;99723.22;;;18.04;45.53
54236;BME280;40151;43.606;1.472;2023-03-03T05:16:22;99728.66;;;18.01;45.75
54236;BME280;40151;43.606;1.472;2023-03-03T05:18:47;99731.28;;;18.01;45.73
54236;BME280;40151;43.606;1.472;2023-03-03T05:21:12;99729.59;;;18.00;45.70
54236;BME280;40151;43.606;1.472;2023-03-03T05:23:38;99733.94;;;18.01;45.62
54236;BME280;40151;43.606;1.472;2023-03-03T05:26:03;99734.00;;;17.99;45.60
54236;BME280;40151;43.606;1.472;2023-03-03T05:28:29;99732.34;;;17.96;45.78
54236;BME280;40151;43.606;1.472;2023-03-03T05:30:54;99739.38;;;17.96;45.63
54236;BME280;40151;43.606;1.472;2023-03-03T05:33:20;99739.47;;;17.94;45.52
54236;BME280;40151;43.606;1.472;2023-03-03T05:35:45;99740.31;;;17.95;45.73
54236;BME280;40151;43.606;1.472;2023-03-03T05:38:11;99745.75;;;17.92;45.46
54236;BME280;40151;43.606;1.472;2023-03-03T05:40:37;99743.94;;;17.92;45.67
54236;BME280;40151;43.606;1.472;2023-03-03T05:43:03;99732.41;;;17.95;45.75
54236;BME280;40151;43.606;1.472;2023-03-03T05:45:28;99741.25;;;17.94;45.85
54236;BME280;40151;43.606;1.472;2023-03-03T05:47:53;99738.69;;;17.92;45.79
54236;BME280;40151;43.606;1.472;2023-03-03T05:50:20;99745.75;;;17.92;45.60
54236;BME280;40151;43.606;1.472;2023-03-03T05:52:50;99745.81;;;17.90;45.83
54236;BME280;40151;43.606;1.472;2023-03-03T05:55:16;99745.81;;;17.90;45.75
54236;BME280;40151;43.606;1.472;2023-03-03T05:57:41;99744.09;;;17.89;45.83
54236;BME280;40151;43.606;1.472;2023-03-03T06:00:07;99741.47;;;17.89;45.50
54236;BME280;40151;43.606;1.472;2023-03-03T06:02:33;99748.56;;;17.87;45.87
54236;BME280;40151;43.606;1.472;2023-03-03T06:04:59;99745.94;;;17.87;45.56
54236;BME280;40151;43.606;1.472;2023-03-03T06:07:25;99745.09;;;17.87;45.40
54236;BME280;40151;43.606;1.472;2023-03-03T06:09:50;99753.06;;;17.85;45.62
54236;BME280;40151;43.606;1.472;2023-03-03T06:12:15;99746.88;;;17.86;45.48
54236;BME280;40151;43.606;1.472;2023-03-03T06:14:41;99752.19;;;17.84;45.61
54236;BME280;40151;43.606;1.472;2023-03-03T06:17:06;99752.19;;;17.84;45.64
54236;BME280;40151;43.606;1.472;2023-03-03T06:19:32;99746.06;;;17.84;45.50
54236;BME280;40151;43.606;1.472;2023-03-03T06:21:57;99755.72;;;17.85;45.63
54236;BME280;40151;43.606;1.472;2023-03-03T06:24:23;99756.63;;;17.84;45.43
54236;BME280;40151;43.606;1.472;2023-03-03T06:26:50;99760.31;;;17.80;45.60
54236;BME280;40151;43.606;1.472;2023-03-03T06:29:16;99762.97;;;17.80;45.55
54236;BME280;40151;43.606;1.472;2023-03-03T06:31:41;99760.31;;;17.80;45.45
54236;BME280;40151;43.606;1.472;2023-03-03T06:34:07;99763.91;;;17.79;45.62
54236;BME280;40151;43.606;1.472;2023-03-03T06:36:33;99763.03;;;17.78;45.71
54236;BME280;40151;43.606;1.472;2023-03-03T06:38:58;99769.16;;;17.79;45.60
54236;BME280;40151;43.606;1.472;2023-03-03T06:41:25;99772.75;;;17.78;45.74
54236;BME280;40151;43.606;1.472;2023-03-03T06:43:50;99778.81;;;17.80;45.40
54236;BME280;40151;43.606;1.472;2023-03-03T06:46:16;99767.56;;;17.75;45.37
54236;BME280;40151;43.606;1.472;2023-03-03T06:48:41;99772.75;;;17.78;45.54
54236;BME280;40151;43.606;1.472;2023-03-03T06:51:31;99772.75;;;17.78;45.63
54236;BME280;40151;43.606;1.472;2023-03-03T06:54:01;99771.16;;;17.74;45.56
54236;BME280;40151;43.606;1.472;2023-03-03T06:56:27;99776.31;;;17.77;45.59
54236;BME280;40151;43.606;1.472;2023-03-03T06:58:55;99776.31;;;17.77;45.50
54236;BME280;40151;43.606;1.472;2023-03-03T07:01:21;99773.00;;;17.71;45.50
54236;BME280;40151;43.606;1.472;2023-03-03T07:03:46;99787.84;;;17.74;45.46
54236;BME280;40151;43.606;1.472;2023-03-03T07:06:23;99781.84;;;17.70;45.81
54236;BME280;40151;43.606;1.472;2023-03-03T07:08:50;99788.78;;;17.73;45.40
54236;BME280;40151;43.606;1.472;2023-03-03T07:11:18;99782.69;;;17.71;45.59
54236;BME280;40151;43.606;1.472;2023-03-03T07:13:49;99783.69;;;17.68;45.75
54236;BME280;40151;43.606;1.472;2023-03-03T07:16:16;99782.69;;;17.71;45.72
54236;BME280;40151;43.606;1.472;2023-03-03T07:18:59;99795.88;;;17.71;45.36
54236;BME280;40151;43.606;1.472;2023-03-03T07:21:34;99791.69;;;17.67;45.65
54236;BME280;40151;43.606;1.472;2023-03-03T07:24:15;99801.38;;;17.66;45.54
54236;BME280;40151;43.606;1.472;2023-03-03T07:26:43;99797.06;;;17.64;45.84
54236;BME280;40151;43.606;1.472;2023-03-03T07:31:41;99804.00;;;17.66;45.60
54236;BME280;40151;43.606;1.472;2023-03-03T07:34:39;99799.66;;;17.65;45.68
54236;BME280;40151;43.606;1.472;2023-03-03T07:37:37;99808.50;;;17.64;45.74
54236;BME280;40151;43.606;1.472;2023-03-03T07:43:24;99811.13;;;17.64;45.53
54236;BME280;40151;43.606;1.472;2023-03-03T07:45:46;99814.63;;;17.65;45.62
54236;BME280;40151;43.606;1.472;2023-03-03T07:48:25;99815.59;;;17.62;45.45
54236;BME280;40151;43.606;1.472;2023-03-03T07:50:57;99826.16;;;17.62;45.65
54236;BME280;40151;43.606;1.472;2023-03-03T07:53:28;99830.44;;;17.65;45.35
54236;BME280;40151;43.606;1.472;2023-03-03T07:55:54;99823.53;;;17.62;45.42
54236;BME280;40151;43.606;1.472;2023-03-03T07:58:36;99820.78;;;17.65;45.68
54236;BME280;40151;43.606;1.472;2023-03-03T08:06:59;99809.81;;;17.75;45.77
54236;BME280;40151;43.606;1.472;2023-03-03T08:14:37;99814.97;;;17.78;45.99
54236;BME280;40151;43.606;1.472;2023-03-03T08:17:35;99815.81;;;17.78;45.69
54236;BME280;40151;43.606;1.472;2023-03-03T08:20:49;99817.56;;;17.79;45.85
54236;BME280;40151;43.606;1.472;2023-03-03T08:22:56;99817.56;;;17.79;45.73
54236;BME280;40151;43.606;1.472;2023-03-03T08:25:21;99813.00;;;17.83;46.01
54236;BME280;40151;43.606;1.472;2023-03-03T08:27:47;99818.28;;;17.83;46.08
54236;BME280;40151;43.606;1.472;2023-03-03T08:30:12;99813.84;;;17.83;45.90
54236;BME280;40151;43.606;1.472;2023-03-03T08:32:39;99825.13;;;17.87;45.99
54236;BME280;40151;43.606;1.472;2023-03-03T08:35:05;99825.13;;;17.87;46.09
54236;BME280;40151;43.606;1.472;2023-03-03T08:37:30;99833.88;;;17.89;45.91
54236;BME280;40151;43.606;1.472;2023-03-03T08:39:56;99837.28;;;17.91;46.10
54236;BME280;40151;43.606;1.472;2023-03-03T08:42:21;99831.88;;;17.94;46.14
54236;BME280;40151;43.606;1.472;2023-03-03T08:44:46;99839.81;;;17.94;45.79
54236;BME280;40151;43.606;1.472;2023-03-03T08:47:12;99842.44;;;17.94;45.83
54236;BME280;40151;43.606;1.472;2023-03-03T08:49:37;99847.72;;;17.94;45.84
54236;BME280;40151;43.606;1.472;2023-03-03T08:52:04;99849.44;;;17.95;45.54
54236;BME280;40151;43.606;1.472;2023-03-03T08:54:29;99847.59;;;17.97;45.74
54236;BME280;40151;43.606;1.472;2023-03-03T08:56:55;99849.44;;;17.95;45.59
54236;BME280;40151;43.606;1.472;2023-03-03T08:59:20;99851.94;;;17.98;45.70
54236;BME280;40151;43.606;1.472;2023-03-03T09:01:46;99840.59;;;17.96;45.57
54236;BME280;40151;43.606;1.472;2023-03-03T09:04:11;99844.03;;;17.98;45.58
54236;BME280;40151;43.606;1.472;2023-03-03T09:06:37;99849.31;;;17.98;45.82
54236;BME280;40151;43.606;1.472;2023-03-03T09:09:03;99856.38;;;17.98;45.61
54236;BME280;40151;43.606;1.472;2023-03-03T09:11:29;99853.75;;;17.98;45.72
54236;BME280;40151;43.606;1.472;2023-03-03T09:14:11;99852.88;;;17.97;45.76
54236;BME280;40151;43.606;1.472;2023-03-03T09:16:39;99848.53;;;17.96;45.83
54236;BME280;40151;43.606;1.472;2023-03-03T09:21:56;99849.31;;;17.98;45.47
54236;BME280;40151;43.606;1.472;2023-03-03T09:24:30;99855.44;;;17.99;45.30
54236;BME280;40151;43.606;1.472;2023-03-03T09:26:58;99851.94;;;17.98;45.29
54236;BME280;40151;43.606;1.472;2023-03-03T09:29:35;99854.59;;;17.98;45.29
54236;BME280;40151;43.606;1.472;2023-03-03T09:32:23;99849.31;;;17.98;45.67
54236;BME280;40151;43.606;1.472;2023-03-03T09:34:50;99856.31;;;18.00;45.55
54236;BME280;40151;43.606;1.472;2023-03-03T09:37:26;99847.47;;;18.01;45.62
54236;BME280;40151;43.606;1.472;2023-03-03T09:39:54;99850.13;;;18.01;45.28
54236;BME280;40151;43.606;1.472;2023-03-03T09:42:42;99844.03;;;17.98;45.36
54236;BME280;40151;43.606;1.472;2023-03-03T09:45:40;99845.63;;;18.03;45.32
54236;BME280;40151;43.606;1.472;2023-03-03T09:48:24;99849.03;;;18.05;45.55
54236;BME280;40151;43.606;1.472;2023-03-03T09:53:55;99856.09;;;18.06;45.46
54236;BME280;40151;43.606;1.472;2023-03-03T09:56:37;99854.47;;;18.02;45.26
54236;BME280;40151;43.606;1.472;2023-03-03T10:08:07;99855.19;;;18.05;45.39
54236;BME280;40151;43.606;1.472;2023-03-03T10:19:14;99857.81;;;18.07;45.00
54236;BME280;40151;43.606;1.472;2023-03-03T10:22:00;99855.09;;;18.08;45.19
54236;BME280;40151;43.606;1.472;2023-03-03T10:24:34;99856.88;;;18.08;45.04
54236;BME280;40151;43.606;1.472;2023-03-03T10:38:54;99864.59;;;18.13;45.20
54236;BME280;40151;43.606;1.472;2023-03-03T10:57:06;99864.28;;;18.20;45.69
54236;BME280;40151;43.606;1.472;2023-03-03T11:07:48;99846.56;;;18.22;45.55
54236;BME280;40151;43.606;1.472;2023-03-03T11:18:11;99855.31;;;18.24;45.67
54236;BME280;40151;43.606;1.472;2023-03-03T11:31:40;99843.81;;;18.25;45.55
54236;BME280;40151;43.606;1.472;2023-03-03T11:37:15;99844.59;;;18.28;45.38
54236;BME280;40151;43.606;1.472;2023-03-03T11:39:46;99846.28;;;18.29;45.05
54236;BME280;40151;43.606;1.472;2023-03-03T11:44:44;99835.72;;;18.29;45.55
54236;BME280;40151;43.606;1.472;2023-03-03T11:47:50;99839.19;;;18.31;45.44
54236;BME280;40151;43.606;1.472;2023-03-03T11:50:25;99830.44;;;18.29;45.14
54236;BME280;40151;43.606;1.472;2023-03-03T11:55:35;99829.56;;;18.30;44.94
54236;BME280;40151;43.606;1.472;2023-03-03T12:03:33;99818.16;;;18.28;44.92
54236;BME280;40151;43.606;1.472;2023-03-03T12:12:02;99810.06;;;18.32;45.00
54236;BME280;40151;43.606;1.472;2023-03-03T12:22:33;99804.69;;;18.34;44.60
54236;BME280;40151;43.606;1.472;2023-03-03T12:25:17;99804.63;;;18.35;44.29
54236;BME280;40151;43.606;1.472;2023-03-03T12:27:49;99807.34;;;18.34;44.04
54236;BME280;40151;43.606;1.472;2023-03-03T12:39:01;99794.94;;;18.36;44.22
54236;BME280;40151;43.606;1.472;2023-03-03T12:44:23;99782.66;;;18.35;44.32
54236;BME280;40151;43.606;1.472;2023-03-03T12:47:00;99775.50;;;18.37;44.08
54236;BME280;40151;43.606;1.472;2023-03-03T13:06:13;99761.03;;;18.25;41.71
54236;BME280;40151;43.606;1.472;2023-03-03T13:08:48;99760.06;;;18.28;42.28
54236;BME280;40151;43.606;1.472;2023-03-03T13:14:16;99762.84;;;18.24;41.82
54236;BME280;40151;43.606;1.472;2023-03-03T13:17:34;99766.34;;;18.25;41.99
54236;BME280;40151;43.606;1.472;2023-03-03T13:23:07;99759.94;;;18.31;42.70
54236;BME280;40151;43.606;1.472;2023-03-03T13:25:54;99754.66;;;18.31;42.56
54236;BME280;40151;43.606;1.472;2023-03-03T13:30:54;99762.28;;;18.37;42.88
54236;BME280;40151;43.606;1.472;2023-03-03T13:33:26;99765.72;;;18.39;43.06
54236;BME280;40151;43.606;1.472;2023-03-03T13:35:57;99760.38;;;18.41;43.11
54236;BME280;40151;43.606;1.472;2023-03-03T13:38:32;99762.13;;;18.40;43.11
54236;BME280;40151;43.606;1.472;2023-03-03T13:41:25;99765.53;;;18.44;42.84
54236;BME280;40151;43.606;1.472;2023-03-03T13:44:04;99764.50;;;18.46;43.06
54236;BME280;40151;43.606;1.472;2023-03-03T13:52:08;99755.38;;;18.54;42.76
54236;BME280;40151;43.606;1.472;2023-03-03T13:57:58;99761.78;;;18.48;40.95
54236;BME280;40151;43.606;1.472;2023-03-03T14:03:06;99763.59;;;18.47;41.18
54236;BME280;40151;43.606;1.472;2023-03-03T14:05:48;99767.94;;;18.48;41.36
54236;BME280;40151;43.606;1.472;2023-03-03T14:08:19;99759.22;;;18.46;40.78
54236;BME280;40151;43.606;1.472;2023-03-03T14:11:41;99763.50;;;18.49;41.11
54236;BME280;40151;43.606;1.472;2023-03-03T14:19:39;99746.81;;;18.48;41.26
54236;BME280;40151;43.606;1.472;2023-03-03T14:25:01;99747.66;;;18.49;41.51
54236;BME280;40151;43.606;1.472;2023-03-03T14:27:52;99740.59;;;18.49;41.70
54236;BME280;40151;43.606;1.472;2023-03-03T14:33:13;99737.09;;;18.49;41.70
54236;BME280;40151;43.606;1.472;2023-03-03T14:35:50;99738.81;;;18.50;41.58
54236;BME280;40151;43.606;1.472;2023-03-03T14:38:18;99736.09;;;18.51;41.82
54236;BME280;40151;43.606;1.472;2023-03-03T14:40:46;99743.22;;;18.49;41.80
54236;BME280;40151;43.606;1.472;2023-03-03T14:43:22;99739.66;;;18.50;41.66
54236;BME280;40151;43.606;1.472;2023-03-03T14:45:49;99735.25;;;18.51;42.02
54236;BME280;40151;43.606;1.472;2023-03-03T14:48:15;99746.66;;;18.51;41.62
54236;BME280;40151;43.606;1.472;2023-03-03T14:53:44;99736.88;;;18.54;41.77
54236;BME280;40151;43.606;1.472;2023-03-03T14:56:22;99739.53;;;18.54;41.82
54236;BME280;40151;43.606;1.472;2023-03-03T14:59:16;99743.09;;;18.52;42.31
54236;BME280;40151;43.606;1.472;2023-03-03T15:01:43;99745.66;;;18.54;42.00
54236;BME280;40151;43.606;1.472;2023-03-03T15:04:23;99736.94;;;18.52;41.92
54236;BME280;40151;43.606;1.472;2023-03-03T15:06:52;99747.47;;;18.54;42.24
54236;BME280;40151;43.606;1.472;2023-03-03T15:09:27;99739.53;;;18.54;42.31
54236;BME280;40151;43.606;1.472;2023-03-03T15:12:17;99747.47;;;18.54;42.05
54236;BME280;40151;43.606;1.472;2023-03-03T15:14:48;99740.38;;;18.54;42.05
54236;BME280;40151;43.606;1.472;2023-03-03T15:17:24;99750.16;;;18.52;41.76
54236;BME280;40151;43.606;1.472;2023-03-03T15:22:41;99748.41;;;18.52;41.90
54236;BME280;40151;43.606;1.472;2023-03-03T15:28:24;99757.22;;;18.51;41.88
54236;BME280;40151;43.606;1.472;2023-03-03T15:34:24;99750.22;;;18.50;42.12
54236;BME280;40151;43.606;1.472;2023-03-03T15:37:02;99756.38;;;18.51;42.50
54236;BME280;40151;43.606;1.472;2023-03-03T15:55:58;99743.38;;;18.46;42.42
54236;BME280;40151;43.606;1.472;2023-03-03T16:01:33;99745.00;;;18.49;42.53
54236;BME280;40151;43.606;1.472;2023-03-03T16:04:04;99747.59;;;18.50;42.93
54236;BME280;40151;43.606;1.472;2023-03-03T16:20:22;99734.25;;;18.54;43.36
54236;BME280;40151;43.606;1.472;2023-03-03T16:23:16;99749.16;;;18.55;43.31
54236;BME280;40151;43.606;1.472;2023-03-03T16:25:51;99742.94;;;18.56;43.52
54236;BME280;40151;43.606;1.472;2023-03-03T16:28:29;99737.66;;;18.56;43.51
54236;BME280;40151;43.606;1.472;2023-03-03T16:38:39;99754.41;;;18.56;43.84
54236;BME280;40151;43.606;1.472;2023-03-03T16:46:54;99746.38;;;18.58;44.16
54236;BME280;40151;43.606;1.472;2023-03-03T16:49:47;99760.44;;;18.58;44.17
54236;BME280;40151;43.606;1.472;2023-03-03T16:52:22;99767.50;;;18.58;44.13
54236;BME280;40151;43.606;1.472;2023-03-03T16:54:54;99763.97;;;18.59;44.04
54236;BME280;40151;43.606;1.472;2023-03-03T17:05:28;99775.38;;;18.59;44.00
54236;BME280;40151;43.606;1.472;2023-03-03T17:15:55;99776.38;;;18.57;44.14
54236;BME280;40151;43.606;1.472;2023-03-03T17:21:02;99783.53;;;18.55;44.42
54236;BME280;40151;43.606;1.472;2023-03-03T17:23:41;99790.53;;;18.56;44.11
54236;BME280;40151;43.606;1.472;2023-03-03T17:43:14;99808.25;;;18.54;44.01
54236;BME280;40151;43.606;1.472;2023-03-03T17:45:42;99814.47;;;18.52;43.92
54236;BME280;40151;43.606;1.472;2023-03-03T17:51:21;99817.22;;;18.49;44.34
54236;BME280;40151;43.606;1.472;2023-03-03T17:56:32;99826.09;;;18.48;44.07
54236;BME280;40151;43.606;1.472;2023-03-03T18:05:19;99845.50;;;18.47;43.99
54236;BME280;40151;43.606;1.472;2023-03-03T18:18:43;99854.34;;;18.46;43.20
54236;BME280;40151;43.606;1.472;2023-03-03T18:21:22;99857.78;;;18.48;43.04
54236;BME280;40151;43.606;1.472;2023-03-03T18:23:49;99858.63;;;18.49;42.93
54236;BME280;40151;43.606;1.472;2023-03-03T18:39:46;99865.66;;;18.50;42.89
54236;BME280;40151;43.606;1.472;2023-03-03T18:42:34;99870.06;;;18.49;42.18
54236;BME280;40151;43.606;1.472;2023-03-03T18:48:08;99871.78;;;18.50;42.19
54236;BME280;40151;43.606;1.472;2023-03-03T18:50:37;99866.56;;;18.49;42.53